Time;durP1;ratioP1;P1;durP2;ratioP2;P2;SDS_P1;SDS_P2;PMS_P1;PMS_P2;Temp;Humidity;BMP_temperature;BMP_pressure;BME280_temperature;BME280_humidity;BME280_pressure;Samples;Min_cycle;Max_cycle;Signal;HPM_P1;HPM_P2
2023/03/27 00:03:12;;;;;;;9.3;5.1;;;;;;;8.1;85.7;97170;;;;
2023/03/27 00:13:12;;;;;;;9.3;5.1;;;;;;;8.1;85.3;97170;;;;
2023/03/27 00:24:12;;;;;;;9.3;5.1;;;;;;;8.2;85.1;97170;;;;
2023/03/27 00:34:12;;;;;;;10.5;4.4;;;;;;;8.1;85.6;97170;;;;
2023/03/27 00:44:12;;;;;;;10.5;4.4;;;;;;;8;85.8;97160;;;;
2023/03/27 00:54:12;;;;;;;10.5;4.4;;;;;;;8.1;85.9;97150;;;;
2023/03/27 01:04:12;;;;;;;10;4;;;;;;;8.2;85.4;97140;;;;
2023/03/27 01:14:12;;;;;;;10;4;;;;;;;7.9;86;97130;;;;
2023/03/27 01:25:12;;;;;;;10;4;;;;;;;7.9;86.5;97110;;;;
2023/03/27 01:36:12;;;;;;;6.8;3.9;;;;;;;7.8;87.3;97090;;;;
2023/03/27 01:47:12;;;;;;;6.8;3.9;;;;;;;7.9;87;97070;;;;
2023/03/27 01:57:14;;;;;;;6.8;3.9;;;;;;;7.9;86.7;97070;;;;
2023/03/27 02:07:12;;;;;;;8.4;4.2;;;;;;;7.7;87.2;97060;;;;
2023/03/27 02:18:12;;;;;;;8.4;4.2;;;;;;;7.8;87.1;97040;;;;
2023/03/27 02:29:12;;;;;;;8.1;4.8;;;;;;;7.8;87.2;97040;;;;
2023/03/27 02:40:13;;;;;;;8.1;4.8;;;;;;;7.8;87.1;97050;;;;
2023/03/27 02:51:12;;;;;;;8.1;4.8;;;;;;;7.7;87.1;97050;;;;
2023/03/27 03:01:12;;;;;;;8.3;5.3;;;;;;;7.7;87;97050;;;;
2023/03/27 03:12:12;;;;;;;8.3;5.3;;;;;;;7.9;87;97070;;;;
2023/03/27 03:22:12;;;;;;;8.3;5.3;;;;;;;7.9;86.6;97070;;;;
2023/03/27 03:33:13;;;;;;;10.8;5.1;;;;;;;7.9;86.7;97080;;;;
2023/03/27 03:44:12;;;;;;;10.8;5.1;;;;;;;7.9;86.5;97070;;;;
2023/03/27 03:54:12;;;;;;;10.8;5.1;;;;;;;7.9;86.6;97070;;;;
2023/03/27 04:04:12;;;;;;;10.1;5.3;;;;;;;8;86.2;97060;;;;
2023/03/27 04:14:12;;;;;;;10.1;5.3;;;;;;;8;86.2;97060;;;;
2023/03/27 04:25:12;;;;;;;10.1;5.3;;;;;;;7.9;86.4;97060;;;;
2023/03/27 04:36:13;;;;;;;8.9;5.6;;;;;;;8;86;97060;;;;
2023/03/27 04:46:12;;;;;;;8.9;5.6;;;;;;;7.9;86;97060;;;;
2023/03/27 04:57:14;;;;;;;8.9;5.6;;;;;;;7.8;86.2;97060;;;;
2023/03/27 05:07:12;;;;;;;13;5.5;;;;;;;7.8;86.1;97050;;;;
2023/03/27 05:18:12;;;;;;;13;5.5;;;;;;;7.8;86.4;97050;;;;
2023/03/27 05:29:12;;;;;;;10;5.1;;;;;;;8;86.1;97060;;;;
2023/03/27 05:39:12;;;;;;;10;5.1;;;;;;;7.9;86;97070;;;;
2023/03/27 05:49:12;;;;;;;10;5.1;;;;;;;8.1;85.7;97070;;;;
2023/03/27 05:59:12;;;;;;;9.9;5.6;;;;;;;8.1;85.4;97090;;;;
2023/03/27 06:09:12;;;;;;;9.9;5.6;;;;;;;8.2;85.1;97100;;;;
2023/03/27 06:19:12;;;;;;;9.9;5.6;;;;;;;8.1;85.2;97110;;;;
2023/03/27 06:30:12;;;;;;;9.4;5.5;;;;;;;8.2;85.5;97110;;;;
2023/03/27 06:41:12;;;;;;;9.4;5.5;;;;;;;8.1;85.6;97120;;;;
2023/03/27 06:51:12;;;;;;;9.4;5.5;;;;;;;8.2;85.4;97120;;;;
2023/03/27 07:01:12;;;;;;;9;5.3;;;;;;;8.2;85.4;97140;;;;
2023/03/27 07:12:12;;;;;;;9;5.3;;;;;;;8.1;85.5;97150;;;;
2023/03/27 07:22:12;;;;;;;9;5.3;;;;;;;8;86.1;97140;;;;
2023/03/27 07:33:12;;;;;;;8.3;5.8;;;;;;;8;86.2;97150;;;;
2023/03/27 07:44:12;;;;;;;8.3;5.8;;;;;;;8;86.3;97150;;;;
2023/03/27 07:54:12;;;;;;;8.3;5.8;;;;;;;8.1;86.1;97160;;;;
2023/03/27 08:04:12;;;;;;;9.5;6.4;;;;;;;8.2;86.3;97160;;;;
2023/03/27 08:14:12;;;;;;;9.5;6.4;;;;;;;8.3;86;97170;;;;
2023/03/27 08:25:12;;;;;;;9.5;6.4;;;;;;;8.2;85.7;97170;;;;
2023/03/27 08:35:12;;;;;;;11.2;5.9;;;;;;;8.2;85.6;97180;;;;
2023/03/27 08:45:12;;;;;;;11.2;5.9;;;;;;;8.1;86.2;97180;;;;
2023/03/27 08:55:12;;;;;;;11.2;5.9;;;;;;;7.9;87;97190;;;;
2023/03/27 09:05:12;;;;;;;8.1;5.9;;;;;;;7.8;87.3;97200;;;;
2023/03/27 09:16:12;;;;;;;8.1;5.9;;;;;;;8;86.6;97190;;;;
2023/03/27 09:27:12;;;;;;;8.1;5.9;;;;;;;7.6;86.8;97210;;;;
2023/03/27 09:37:13;;;;;;;9.4;4.4;;;;;;;7.2;86;97220;;;;
2023/03/27 09:48:12;;;;;;;9.4;4.4;;;;;;;6.7;86.5;97250;;;;
2023/03/27 09:58:13;;;;;;;5;2.9;;;;;;;6.4;86.6;97250;;;;
2023/03/27 10:09:12;;;;;;;5;2.9;;;;;;;6.2;88.6;97260;;;;
2023/03/27 10:19:12;;;;;;;5;2.9;;;;;;;6.2;88.8;97270;;;;
2023/03/27 10:29:12;;;;;;;7.6;4.3;;;;;;;6.1;88.5;97300;;;;
2023/03/27 10:40:12;;;;;;;7.6;4.3;;;;;;;6;87.6;97300;;;;
2023/03/27 10:51:12;;;;;;;7.6;4.3;;;;;;;5.8;88.5;97320;;;;
2023/03/27 11:01:12;;;;;;;10.6;5.5;;;;;;;5.6;89.3;97330;;;;
2023/03/27 11:11:12;;;;;;;10.6;5.5;;;;;;;5;89.3;97360;;;;
2023/03/27 11:22:13;;;;;;;10.6;5.5;;;;;;;4.4;89.9;97400;;;;
2023/03/27 11:32:12;;;;;;;13.1;7.5;;;;;;;4.3;90.6;97430;;;;
2023/03/27 11:43:12;;;;;;;13.1;7.5;;;;;;;3.9;90.6;97460;;;;
2023/03/27 11:54:13;;;;;;;13.1;7.5;;;;;;;3.5;90.8;97480;;;;
2023/03/27 12:05:13;;;;;;;14.7;8.6;;;;;;;3.3;91.2;97530;;;;
2023/03/27 12:15:12;;;;;;;14.7;8.6;;;;;;;3.1;91.2;97560;;;;
2023/03/27 12:25:14;;;;;;;14.7;8.6;;;;;;;2.8;91;97580;;;;
2023/03/27 12:36:12;;;;;;;11.3;6.7;;;;;;;2.5;90.9;97620;;;;
2023/03/27 12:46:12;;;;;;;11.3;6.7;;;;;;;2.4;91.5;97640;;;;
2023/03/27 12:56:12;;;;;;;11.3;6.7;;;;;;;2.3;91.3;97670;;;;
2023/03/27 13:06:13;;;;;;;10;5.3;;;;;;;2.3;91.3;97700;;;;
2023/03/27 13:16:12;;;;;;;10;5.3;;;;;;;2.3;91.4;97730;;;;
2023/03/27 13:27:12;;;;;;;9.1;4.8;;;;;;;2.1;90.9;97750;;;;
2023/03/27 13:37:52;;;;;;;9.1;4.8;;;;;;;2.1;90.7;97770;;;;
2023/03/27 13:47:51;;;;;;;9.1;4.8;;;;;;;2.1;91.5;97790;;;;
2023/03/27 13:57:51;;;;;;;9.6;5.8;;;;;;;2.1;90.6;97800;;;;
2023/03/27 14:08:51;;;;;;;9.6;5.8;;;;;;;2.4;88.8;97820;;;;
2023/03/27 14:18:51;;;;;;;9.6;5.8;;;;;;;2.3;85.6;97840;;;;
2023/03/27 14:29:51;;;;;;;10;5.7;;;;;;;2.3;86.3;97860;;;;
2023/03/27 14:39:52;;;;;;;10;5.7;;;;;;;2.3;85.4;97890;;;;
2023/03/27 14:49:57;;;;;;;10;5.7;;;;;;;2.3;85.1;97900;;;;
2023/03/27 15:00:51;;;;;;;11.4;7.2;;;;;;;2.4;81.3;97920;;;;
2023/03/27 15:11:51;;;;;;;11.4;7.2;;;;;;;2.4;82.2;97940;;;;
2023/03/27 15:21:55;;;;;;;11.4;7.2;;;;;;;2.4;81.1;97960;;;;
2023/03/27 15:32:52;;;;;;;10.7;6.1;;;;;;;2.3;79.7;97980;;;;
2023/03/27 15:42:51;;;;;;;10.7;6.1;;;;;;;2.4;77.7;97990;;;;
2023/03/27 15:52:51;;;;;;;10.7;6.1;;;;;;;2.4;79.3;98000;;;;
2023/03/27 16:02:51;;;;;;;9.4;4.5;;;;;;;2.4;76.1;98020;;;;
2023/03/27 16:13:51;;;;;;;9.4;4.5;;;;;;;2.4;77.7;98030;;;;
2023/03/27 16:23:51;;;;;;;9.4;4.5;;;;;;;2.4;75.5;98040;;;;
2023/03/27 16:34:51;;;;;;;7.8;4.4;;;;;;;2.4;76.1;98070;;;;
2023/03/27 16:44:51;;;;;;;7.8;4.4;;;;;;;2.3;75.6;98090;;;;
2023/03/27 16:54:51;;;;;;;7.8;4.4;;;;;;;2.2;74.7;98110;;;;
2023/03/27 17:04:51;;;;;;;6.3;3;;;;;;;2.1;73.3;98140;;;;
2023/03/27 17:15:51;;;;;;;6.3;3;;;;;;;2;76.1;98150;;;;
2023/03/27 17:26:51;;;;;;;6.9;3.8;;;;;;;2;75.2;98170;;;;
2023/03/27 17:37:51;;;;;;;6.9;3.8;;;;;;;1.9;74.9;98180;;;;
2023/03/27 17:48:51;;;;;;;6.9;3.8;;;;;;;1.9;72.8;98200;;;;
2023/03/27 17:58:52;;;;;;;7.1;3.2;;;;;;;1.9;72.5;98210;;;;
2023/03/27 18:08:51;;;;;;;7.1;3.2;;;;;;;1.9;71.7;98210;;;;
2023/03/27 18:18:53;;;;;;;7.1;3.2;;;;;;;1.9;74.1;98230;;;;
2023/03/27 18:29:51;;;;;;;5.6;3.5;;;;;;;1.9;74.2;98250;;;;
2023/03/27 18:39:51;;;;;;;5.6;3.5;;;;;;;1.8;73;98260;;;;
2023/03/27 18:50:51;;;;;;;5.6;3.5;;;;;;;1.7;75.6;98270;;;;
2023/03/27 19:01:52;;;;;;;7.4;4.2;;;;;;;1.6;75.1;98290;;;;
2023/03/27 19:12:51;;;;;;;7.4;4.2;;;;;;;1.5;72.2;98290;;;;
2023/03/27 19:22:51;;;;;;;7.4;4.2;;;;;;;1.5;70.6;98310;;;;
2023/03/27 19:33:51;;;;;;;7.6;4.3;;;;;;;1.4;75.9;98320;;;;
2023/03/27 19:43:51;;;;;;;7.6;4.3;;;;;;;1.3;74.4;98320;;;;
2023/03/27 19:54:52;;;;;;;7.6;4.3;;;;;;;1.2;74;98320;;;;
2023/03/27 20:05:51;;;;;;;8.1;4.1;;;;;;;1.1;72.6;98330;;;;
2023/03/27 20:16:51;;;;;;;8.1;4.1;;;;;;;1;72.6;98330;;;;
2023/03/27 20:26:53;;;;;;;11;5.2;;;;;;;0.9;72.6;98340;;;;
2023/03/27 20:36:51;;;;;;;11;5.2;;;;;;;0.8;71.2;98340;;;;
2023/03/27 20:46:51;;;;;;;11;5.2;;;;;;;0.8;72.8;98340;;;;
2023/03/27 20:56:51;;;;;;;11.1;5.3;;;;;;;0.7;72.2;98340;;;;
2023/03/27 21:07:51;;;;;;;11.1;5.3;;;;;;;0.7;71.4;98350;;;;
2023/03/27 21:17:51;;;;;;;11.1;5.3;;;;;;;0.6;72.2;98360;;;;
2023/03/27 21:27:52;;;;;;;9.8;6.1;;;;;;;0.6;71.5;98360;;;;
2023/03/27 21:38:51;;;;;;;9.8;6.1;;;;;;;0.4;71.9;98360;;;;
2023/03/27 21:49:51;;;;;;;9.8;6.1;;;;;;;0.3;73;98370;;;;
2023/03/27 21:59:51;;;;;;;16.6;7.2;;;;;;;0.2;72.7;98370;;;;
2023/03/27 22:09:51;;;;;;;16.6;7.2;;;;;;;0.1;72.6;98380;;;;
2023/03/27 22:20:51;;;;;;;16.6;7.2;;;;;;;-0.1;73.2;98390;;;;
2023/03/27 22:31:51;;;;;;;13.9;7.7;;;;;;;-0.2;73.1;98390;;;;
2023/03/27 22:41:51;;;;;;;13.9;7.7;;;;;;;-0.4;73.1;98400;;;;
2023/03/27 22:52:51;;;;;;;13.9;7.7;;;;;;;-0.5;73.5;98400;;;;
2023/03/27 23:03:51;;;;;;;16.9;9.4;;;;;;;-0.7;73.1;98400;;;;
2023/03/27 23:14:51;;;;;;;16.9;9.4;;;;;;;-0.8;73.2;98410;;;;
2023/03/27 23:24:51;;;;;;;16.9;9.4;;;;;;;-0.9;73.3;98420;;;;
2023/03/27 23:35:51;;;;;;;17.9;9.5;;;;;;;-1;73.5;98410;;;;
2023/03/27 23:46:51;;;;;;;17.9;9.5;;;;;;;-1.2;74.2;98420;;;;
2023/03/27 23:57:51;;;;;;;19.8;12;;;;;;;-1.4;76.1;98420;;;;
